createdAt,value
2023-01-19T00:01:46.435Z,8.77
2023-01-19T00:04:03.751Z,9.25
2023-01-19T00:06:21.779Z,9.30
2023-01-19T00:08:39.094Z,9.50
2023-01-19T00:10:56.060Z,8.88
2023-01-19T00:13:13.419Z,8.73
2023-01-19T00:15:30.440Z,9.40
2023-01-19T00:17:47.500Z,8.93
2023-01-19T00:20:05.404Z,8.65
2023-01-19T00:22:22.822Z,9.27
2023-01-19T00:24:40.188Z,8.30
2023-01-19T00:26:57.199Z,8.10
2023-01-19T00:29:14.221Z,8.43
2023-01-19T00:31:31.291Z,8.32
2023-01-19T00:33:48.492Z,8.20
2023-01-19T00:36:05.397Z,8.00
2023-01-19T00:38:22.699Z,8.35
2023-01-19T00:40:40.000Z,8.07
2023-01-19T00:42:58.322Z,8.00
2023-01-19T00:45:15.497Z,7.90
2023-01-19T00:47:32.769Z,7.47
2023-01-19T00:49:49.845Z,7.68
2023-01-19T00:52:07.097Z,8.63
2023-01-19T00:54:24.434Z,8.13
2023-01-19T00:56:41.665Z,8.40
2023-01-19T00:58:58.581Z,7.97
2023-01-19T01:01:15.489Z,8.05
2023-01-19T01:03:32.553Z,7.90
2023-01-19T01:05:49.592Z,7.53
2023-01-19T01:08:06.902Z,7.57
2023-01-19T01:10:24.899Z,8.07
2023-01-19T01:12:42.111Z,7.90
2023-01-19T01:15:14.371Z,7.80
2023-01-19T01:17:31.690Z,8.40
2023-01-19T01:19:48.551Z,7.63
2023-01-19T01:22:05.582Z,7.93
2023-01-19T01:24:22.524Z,7.85
2023-01-19T01:26:40.833Z,7.35
2023-01-19T01:28:57.820Z,7.28
2023-01-19T01:31:16.145Z,8.05
2023-01-19T01:33:40.773Z,8.20
2023-01-19T01:35:58.751Z,7.15
2023-01-19T01:38:16.016Z,8.30
2023-01-19T01:40:33.065Z,7.93
2023-01-19T01:42:51.230Z,7.30
2023-01-19T01:45:08.494Z,7.50
2023-01-19T01:47:25.763Z,7.80
2023-01-19T01:49:42.750Z,7.78
2023-01-19T01:52:01.045Z,8.27
2023-01-19T01:54:17.972Z,8.32
2023-01-19T01:56:34.991Z,7.43
2023-01-19T01:58:52.074Z,8.07
2023-01-19T02:01:09.172Z,7.60
2023-01-19T02:03:26.666Z,8.02
2023-01-19T02:05:43.940Z,8.23
2023-01-19T02:08:01.025Z,8.68
2023-01-19T02:10:18.128Z,8.32
2023-01-19T02:12:35.675Z,8.63
2023-01-19T02:14:53.998Z,7.60
2023-01-19T02:17:11.136Z,7.95
2023-01-19T02:19:28.126Z,7.63
2023-01-19T02:21:45.182Z,7.93
2023-01-19T02:24:02.163Z,8.60
2023-01-19T02:26:19.124Z,7.28
2023-01-19T02:28:36.136Z,8.18
2023-01-19T02:30:53.259Z,8.88
2023-01-19T02:33:10.323Z,8.30
2023-01-19T02:35:27.375Z,8.80
2023-01-19T02:37:44.427Z,8.38
2023-01-19T02:40:01.782Z,8.38
2023-01-19T02:42:19.153Z,8.40
2023-01-19T02:44:36.200Z,8.40
2023-01-19T02:46:53.130Z,8.82
2023-01-19T02:49:10.211Z,8.45
2023-01-19T02:51:27.161Z,8.85
2023-01-19T02:53:44.210Z,8.55
2023-01-19T02:56:01.196Z,8.82
2023-01-19T02:58:18.502Z,9.15
2023-01-19T03:00:36.733Z,9.77
2023-01-19T03:02:54.211Z,8.88
2023-01-19T03:05:12.241Z,8.85
2023-01-19T03:07:29.571Z,9.15
2023-01-19T03:09:46.485Z,9.75
2023-01-19T03:12:03.603Z,8.93
2023-01-19T03:14:21.817Z,9.30
2023-01-19T03:16:38.894Z,9.57
2023-01-19T03:18:55.867Z,9.63
2023-01-19T03:21:14.129Z,9.98
2023-01-19T03:23:31.616Z,9.57
2023-01-19T03:25:48.668Z,9.63
2023-01-19T03:28:05.640Z,10.07
2023-01-19T03:30:22.625Z,10.82
2023-01-19T03:32:40.520Z,11.75
2023-01-19T03:34:57.602Z,11.55
2023-01-19T03:37:15.623Z,11.68
2023-01-19T03:39:32.679Z,11.35
2023-01-19T03:41:50.010Z,11.55
2023-01-19T03:44:07.213Z,10.75
2023-01-19T03:46:24.247Z,11.25
2023-01-19T03:48:41.202Z,11.45
2023-01-19T03:50:58.468Z,11.02
2023-01-19T03:53:15.541Z,10.52
2023-01-19T03:55:32.581Z,11.18
2023-01-19T03:57:49.618Z,10.80
2023-01-19T04:00:07.554Z,10.50
2023-01-19T04:02:24.815Z,11.10
2023-01-19T04:04:42.158Z,10.15
2023-01-19T04:06:59.423Z,10.45
2023-01-19T04:09:19.193Z,10.38
2023-01-19T04:11:36.537Z,10.25
2023-01-19T04:13:53.514Z,10.80
2023-01-19T04:16:11.766Z,10.57
2023-01-19T04:18:29.011Z,10.45
2023-01-19T04:20:46.016Z,10.30
2023-01-19T04:23:03.753Z,10.88
2023-01-19T04:25:21.147Z,10.75
2023-01-19T04:27:38.193Z,11.27
2023-01-19T04:29:55.245Z,10.25
2023-01-19T04:32:13.362Z,11.02
2023-01-19T04:34:30.399Z,10.73
2023-01-19T04:36:47.769Z,10.68
2023-01-19T04:39:04.751Z,13.02
2023-01-19T04:41:21.787Z,14.43
2023-01-19T04:43:39.132Z,13.75
2023-01-19T04:45:56.385Z,13.80
2023-01-19T04:48:13.640Z,13.70
2023-01-19T04:50:30.936Z,13.90
2023-01-19T04:52:47.999Z,14.10
2023-01-19T04:55:05.358Z,15.27
2023-01-19T04:57:22.769Z,15.23
2023-01-19T04:59:40.283Z,15.50
2023-01-19T05:01:57.445Z,14.70
2023-01-19T05:04:14.664Z,15.52
2023-01-19T05:06:31.897Z,14.82
2023-01-19T05:08:48.955Z,15.55
2023-01-19T05:11:06.211Z,14.80
2023-01-19T05:13:23.339Z,14.73
2023-01-19T05:15:41.408Z,15.07
2023-01-19T05:18:00.870Z,14.35
2023-01-19T05:20:17.934Z,15.43
2023-01-19T05:22:35.219Z,15.10
2023-01-19T05:24:52.511Z,13.75
2023-01-19T05:27:09.443Z,14.57
2023-01-19T05:29:26.513Z,14.18
2023-01-19T05:31:43.631Z,13.77
2023-01-19T05:34:01.799Z,13.55
2023-01-19T05:36:18.809Z,13.82
2023-01-19T05:38:37.077Z,12.90
2023-01-19T05:40:54.106Z,12.30
2023-01-19T05:43:11.289Z,12.48
2023-01-19T05:45:28.297Z,12.07
2023-01-19T05:47:45.687Z,13.32
2023-01-19T05:50:02.809Z,12.02
2023-01-19T05:52:19.901Z,13.57
2023-01-19T05:54:36.836Z,13.32
2023-01-19T05:56:53.894Z,14.38
2023-01-19T05:59:10.798Z,13.40
2023-01-19T06:01:30.844Z,12.65
2023-01-19T06:03:47.895Z,13.15
2023-01-19T06:06:04.914Z,13.95
2023-01-19T06:08:22.171Z,13.23
2023-01-19T06:10:40.083Z,13.18
2023-01-19T06:12:57.172Z,13.75
2023-01-19T06:15:14.232Z,12.65
2023-01-19T06:17:31.316Z,12.68
2023-01-19T06:19:48.275Z,12.75
2023-01-19T06:22:05.307Z,12.35
2023-01-19T06:24:22.346Z,12.85
2023-01-19T06:26:39.276Z,12.85
2023-01-19T06:28:56.591Z,13.05
2023-01-19T06:31:13.877Z,11.60
2023-01-19T06:33:33.983Z,12.93
2023-01-19T06:35:51.423Z,12.35
2023-01-19T06:38:08.984Z,14.23
2023-01-19T06:40:25.988Z,13.90
2023-01-19T06:42:43.100Z,13.32
2023-01-19T06:45:00.099Z,13.18
2023-01-19T06:47:17.066Z,12.20
2023-01-19T06:49:34.048Z,13.95
2023-01-19T06:51:51.326Z,12.30
2023-01-19T06:54:08.732Z,13.05
2023-01-19T06:56:25.773Z,12.35
2023-01-19T06:58:43.115Z,12.18
2023-01-19T07:01:00.558Z,11.45
2023-01-19T07:03:18.965Z,12.80
2023-01-19T07:05:35.941Z,11.07
2023-01-19T07:07:53.428Z,11.60
2023-01-19T07:10:11.782Z,11.90
2023-01-19T07:12:28.787Z,11.52
2023-01-19T07:14:45.930Z,10.70
2023-01-19T07:17:03.018Z,11.52
2023-01-19T07:19:20.196Z,11.50
2023-01-19T07:21:38.438Z,10.18
2023-01-19T07:23:55.404Z,11.77
2023-01-19T07:26:12.511Z,10.43
2023-01-19T07:28:29.581Z,11.48
2023-01-19T07:30:47.589Z,11.00
2023-01-19T07:33:04.711Z,10.73
2023-01-19T07:35:21.737Z,9.30
2023-01-19T07:37:38.777Z,8.93
2023-01-19T07:39:55.739Z,8.23
2023-01-19T07:42:12.709Z,9.52
2023-01-19T07:44:29.980Z,8.82
2023-01-19T07:46:47.933Z,8.35
2023-01-19T07:49:04.986Z,8.85
2023-01-19T07:51:21.915Z,7.80
2023-01-19T07:53:39.903Z,8.23
2023-01-19T07:55:56.881Z,7.78
2023-01-19T07:58:13.950Z,8.25
2023-01-19T08:00:31.422Z,8.15
2023-01-19T08:02:49.728Z,7.65
2023-01-19T08:05:06.745Z,9.65
2023-01-19T08:07:23.714Z,11.10
2023-01-19T08:09:40.680Z,10.73
2023-01-19T08:11:57.924Z,11.30
2023-01-19T08:14:14.983Z,16.25
2023-01-19T08:16:31.989Z,14.88
2023-01-19T08:18:49.035Z,13.88
2023-01-19T08:21:06.145Z,13.93
2023-01-19T08:23:24.326Z,13.27
2023-01-19T08:25:41.350Z,11.60
2023-01-19T08:27:58.394Z,10.60
2023-01-19T08:30:15.610Z,12.48
2023-01-19T08:32:32.642Z,13.00
2023-01-19T08:34:49.579Z,11.38
2023-01-19T08:37:06.618Z,18.95
2023-01-19T08:39:23.620Z,17.15
2023-01-19T08:41:40.845Z,16.35
2023-01-19T08:43:58.063Z,16.35
2023-01-19T08:46:15.045Z,14.85
2023-01-19T08:48:31.992Z,13.32
2023-01-19T08:50:48.977Z,12.75
2023-01-19T08:53:06.239Z,11.82
2023-01-19T08:55:23.207Z,11.10
2023-01-19T08:57:40.133Z,10.55
2023-01-19T08:59:57.209Z,10.77
2023-01-19T09:02:15.180Z,13.15
2023-01-19T09:04:32.296Z,10.45
2023-01-19T09:06:49.392Z,12.70
2023-01-19T09:09:07.319Z,9.57
2023-01-19T09:11:24.672Z,10.18
2023-01-19T09:13:42.004Z,8.85
2023-01-19T09:16:00.240Z,8.65
2023-01-19T09:18:17.301Z,8.05
2023-01-19T09:20:35.494Z,8.50
2023-01-19T09:22:53.548Z,8.90
2023-01-19T09:25:10.765Z,9.45
2023-01-19T09:27:28.080Z,9.20
2023-01-19T09:29:45.097Z,8.30
2023-01-19T09:32:02.379Z,8.80
2023-01-19T09:34:19.275Z,8.13
2023-01-19T09:36:36.566Z,8.57
2023-01-19T09:38:53.684Z,8.07
2023-01-19T09:41:11.010Z,7.78
2023-01-19T09:43:28.051Z,7.40
2023-01-19T09:45:46.244Z,6.80
2023-01-19T09:48:03.582Z,6.70
2023-01-19T09:50:20.956Z,7.22
2023-01-19T09:52:37.938Z,7.25
2023-01-19T09:54:54.935Z,6.95
2023-01-19T09:57:11.862Z,5.95
2023-01-19T09:59:28.898Z,19.73
2023-01-19T10:01:45.898Z,11.30
2023-01-19T10:04:03.933Z,11.38
2023-01-19T10:06:20.856Z,8.70
2023-01-19T10:08:39.799Z,6.55
2023-01-19T10:10:56.999Z,6.10
2023-01-19T10:13:14.999Z,5.13
2023-01-19T10:15:32.053Z,4.55
2023-01-19T10:17:50.123Z,4.30
2023-01-19T10:20:07.092Z,4.60
2023-01-19T10:22:24.393Z,4.95
2023-01-19T10:24:41.439Z,4.68
2023-01-19T10:26:58.353Z,4.50
2023-01-19T10:29:15.665Z,4.80
2023-01-19T10:31:32.767Z,5.00
2023-01-19T10:33:50.053Z,4.25
2023-01-19T10:36:07.165Z,4.50
2023-01-19T10:38:25.380Z,4.15
2023-01-19T10:40:43.201Z,4.50
2023-01-19T10:43:01.584Z,4.38
2023-01-19T10:45:19.245Z,4.35
2023-01-19T10:47:36.300Z,3.90
2023-01-19T10:49:53.335Z,4.38
2023-01-19T10:52:10.236Z,4.22
2023-01-19T10:54:27.293Z,4.03
2023-01-19T10:56:46.947Z,3.90
2023-01-19T10:59:04.188Z,3.60
2023-01-19T11:01:21.585Z,3.75
2023-01-19T11:03:38.929Z,3.78
2023-01-19T11:05:56.116Z,3.78
2023-01-19T11:08:13.802Z,3.38
2023-01-19T11:10:30.728Z,3.45
2023-01-19T11:12:48.772Z,3.90
2023-01-19T11:15:05.777Z,3.72
2023-01-19T11:17:23.011Z,3.90
2023-01-19T11:19:39.947Z,3.92
2023-01-19T11:21:57.192Z,3.70
2023-01-19T11:24:14.222Z,4.35
2023-01-19T11:26:31.287Z,4.20
2023-01-19T11:28:48.531Z,4.32
2023-01-19T11:31:05.891Z,4.00
2023-01-19T11:33:23.923Z,4.50
2023-01-19T11:35:40.930Z,4.43
2023-01-19T11:37:58.175Z,4.30
2023-01-19T11:40:15.272Z,4.15
2023-01-19T11:42:32.349Z,4.60
2023-01-19T11:44:49.333Z,36.03
2023-01-19T11:47:06.275Z,20.13
2023-01-19T11:49:23.570Z,10.82
2023-01-19T11:51:41.846Z,11.13
2023-01-19T11:53:59.124Z,8.45
2023-01-19T11:56:16.033Z,5.22
2023-01-19T11:58:34.831Z,8.98
2023-01-19T12:00:54.167Z,7.72
2023-01-19T12:03:12.120Z,4.88
2023-01-19T12:05:29.577Z,3.60
2023-01-19T12:07:46.921Z,4.40
2023-01-19T12:10:04.300Z,4.15
2023-01-19T12:12:23.037Z,4.13
2023-01-19T12:14:40.549Z,4.22
2023-01-19T12:16:59.025Z,5.50
2023-01-19T12:19:16.056Z,4.60
2023-01-19T12:21:34.662Z,3.85
2023-01-19T12:23:52.009Z,3.60
2023-01-19T12:26:09.121Z,3.35
2023-01-19T12:28:26.374Z,3.25
2023-01-19T12:30:43.802Z,3.50
2023-01-19T12:33:01.094Z,3.95
2023-01-19T12:35:18.172Z,3.90
2023-01-19T12:37:35.295Z,3.72
2023-01-19T12:39:52.647Z,3.75
2023-01-19T12:42:09.879Z,3.83
2023-01-19T12:44:27.701Z,3.85
2023-01-19T12:46:44.958Z,3.50
2023-01-19T12:49:02.161Z,3.90
2023-01-19T12:51:19.228Z,3.65
2023-01-19T12:53:36.230Z,3.67
2023-01-19T12:55:53.250Z,3.40
2023-01-19T12:58:10.536Z,3.65
2023-01-19T13:00:31.021Z,4.05
2023-01-19T13:02:48.355Z,3.90
2023-01-19T13:05:05.447Z,4.05
2023-01-19T13:07:25.380Z,3.67
2023-01-19T13:09:42.931Z,3.72
2023-01-19T13:12:01.015Z,4.00
2023-01-19T13:14:18.190Z,3.60
2023-01-19T13:16:35.228Z,3.45
2023-01-19T13:18:52.274Z,4.07
2023-01-19T13:21:09.380Z,5.07
2023-01-19T13:23:26.327Z,3.55
2023-01-19T13:25:43.311Z,4.05
2023-01-19T13:28:00.408Z,4.13
2023-01-19T13:30:18.810Z,4.07
2023-01-19T13:32:38.362Z,3.83
2023-01-19T13:34:56.710Z,4.07
2023-01-19T13:37:13.660Z,4.25
2023-01-19T13:39:30.602Z,4.03
2023-01-19T13:41:48.682Z,3.90
2023-01-19T13:44:07.271Z,3.75
2023-01-19T13:46:24.410Z,3.72
2023-01-19T13:48:41.406Z,3.83
2023-01-19T13:50:58.488Z,4.30
2023-01-19T13:53:17.445Z,4.50
2023-01-19T13:55:37.190Z,4.97
2023-01-19T13:57:54.590Z,4.72
2023-01-19T14:00:11.693Z,5.03
2023-01-19T14:02:29.266Z,4.50
2023-01-19T14:04:46.276Z,4.50
2023-01-19T14:07:03.415Z,4.82
2023-01-19T14:09:20.903Z,4.75
2023-01-19T14:11:38.002Z,4.55
2023-01-19T14:13:55.311Z,4.05
2023-01-19T14:16:14.053Z,4.60
2023-01-19T14:18:31.285Z,4.82
2023-01-19T14:20:48.198Z,4.70
2023-01-19T14:23:05.174Z,4.78
2023-01-19T14:25:22.263Z,4.82
2023-01-19T14:27:39.661Z,4.95
2023-01-19T14:29:56.825Z,4.82
2023-01-19T14:32:13.698Z,5.18
2023-01-19T14:34:31.298Z,4.88
2023-01-19T14:36:48.248Z,4.70
2023-01-19T14:39:05.234Z,4.57
2023-01-19T14:41:22.349Z,4.43
2023-01-19T14:43:39.434Z,4.57
2023-01-19T14:45:58.125Z,4.60
2023-01-19T14:48:17.824Z,4.70
2023-01-19T14:50:36.033Z,8.73
2023-01-19T14:52:53.073Z,19.38
2023-01-19T14:55:10.658Z,45.75
2023-01-19T14:57:27.862Z,37.25
2023-01-19T14:59:44.985Z,17.52
2023-01-19T15:02:03.522Z,11.57
2023-01-19T15:04:20.501Z,9.25
2023-01-19T15:06:37.504Z,7.65
2023-01-19T15:08:55.053Z,6.68
2023-01-19T15:11:12.091Z,6.50
2023-01-19T15:13:30.184Z,5.75
2023-01-19T15:15:49.548Z,5.03
2023-01-19T15:18:06.520Z,5.80
2023-01-19T15:20:23.476Z,5.15
2023-01-19T15:22:40.774Z,5.05
2023-01-19T15:24:57.752Z,5.13
2023-01-19T15:27:17.979Z,4.78
2023-01-19T15:29:35.049Z,5.00
2023-01-19T15:31:52.571Z,4.93
2023-01-19T15:34:10.735Z,4.93
2023-01-19T15:36:27.746Z,5.03
2023-01-19T15:38:45.111Z,4.80
2023-01-19T15:41:02.418Z,5.32
2023-01-19T15:43:19.442Z,4.88
2023-01-19T15:45:36.517Z,6.65
2023-01-19T15:47:53.534Z,5.93
2023-01-19T15:50:11.878Z,8.35
2023-01-19T15:52:29.114Z,7.70
2023-01-19T15:54:47.177Z,7.53
2023-01-19T15:57:04.599Z,6.55
2023-01-19T15:59:22.910Z,6.90
2023-01-19T16:01:40.325Z,5.63
2023-01-19T16:03:58.352Z,5.00
2023-01-19T16:06:15.733Z,5.22
2023-01-19T16:08:33.831Z,5.57
2023-01-19T16:10:50.784Z,5.30
2023-01-19T16:13:07.817Z,4.72
2023-01-19T16:15:25.112Z,4.63
2023-01-19T16:17:43.433Z,5.00
2023-01-19T16:20:01.450Z,4.30
2023-01-19T16:22:18.740Z,4.78
2023-01-19T16:24:36.174Z,4.50
2023-01-19T16:26:53.248Z,4.20
2023-01-19T16:29:10.244Z,4.63
2023-01-19T16:31:27.713Z,3.92
2023-01-19T16:33:45.780Z,3.50
2023-01-19T16:36:02.860Z,4.47
2023-01-19T16:38:19.882Z,4.25
2023-01-19T16:40:37.835Z,4.13
2023-01-19T16:42:54.823Z,4.15
2023-01-19T16:45:12.898Z,4.15
2023-01-19T16:47:30.306Z,3.72
2023-01-19T16:49:47.692Z,3.58
2023-01-19T16:52:04.843Z,3.88
2023-01-19T16:54:22.214Z,3.95
2023-01-19T16:56:39.241Z,3.80
2023-01-19T16:58:59.062Z,3.72
2023-01-19T17:01:17.784Z,3.67
2023-01-19T17:03:36.714Z,4.70
2023-01-19T17:05:55.654Z,5.03
2023-01-19T17:08:15.497Z,4.50
2023-01-19T17:10:33.522Z,4.43
2023-01-19T17:12:50.519Z,4.38
2023-01-19T17:15:07.515Z,4.30
2023-01-19T17:17:24.527Z,4.20
2023-01-19T17:19:41.819Z,5.38
2023-01-19T17:21:59.101Z,5.80
2023-01-19T17:24:16.034Z,4.60
2023-01-19T17:26:33.301Z,4.97
2023-01-19T17:28:50.243Z,5.18
2023-01-19T17:31:07.318Z,5.60
2023-01-19T17:33:24.685Z,6.70
2023-01-19T17:35:41.911Z,8.93
2023-01-19T17:37:58.939Z,8.85
2023-01-19T17:40:15.985Z,8.80
2023-01-19T17:42:33.228Z,8.00
2023-01-19T17:44:50.486Z,7.65
2023-01-19T17:47:07.752Z,7.63
2023-01-19T17:49:24.784Z,7.95
2023-01-19T17:51:42.880Z,6.95
2023-01-19T17:54:00.324Z,9.15
2023-01-19T17:56:17.401Z,9.15
2023-01-19T17:58:34.393Z,8.85
2023-01-19T18:00:51.481Z,8.02
2023-01-19T18:03:08.422Z,7.40
2023-01-19T18:05:25.377Z,6.68
2023-01-19T18:07:42.396Z,6.40
2023-01-19T18:10:01.077Z,7.03
2023-01-19T18:12:18.544Z,7.63
2023-01-19T18:14:35.873Z,8.27
2023-01-19T18:16:54.156Z,7.65
2023-01-19T18:19:11.207Z,7.55
2023-01-19T18:21:28.322Z,8.07
2023-01-19T18:23:45.576Z,7.47
2023-01-19T18:26:02.900Z,7.32
2023-01-19T18:28:20.010Z,6.88
2023-01-19T18:30:37.290Z,6.95
2023-01-19T18:32:54.317Z,6.75
2023-01-19T18:35:11.286Z,6.68
2023-01-19T18:37:28.557Z,7.85
2023-01-19T18:39:46.848Z,7.18
2023-01-19T18:42:04.196Z,7.43
2023-01-19T18:44:22.441Z,6.90
2023-01-19T18:46:39.588Z,8.20
2023-01-19T18:48:57.588Z,8.18
2023-01-19T18:51:17.390Z,7.88
2023-01-19T18:53:34.425Z,7.32
2023-01-19T18:55:52.603Z,7.43
2023-01-19T18:58:10.846Z,7.30
2023-01-19T19:00:29.282Z,6.95
2023-01-19T19:02:46.629Z,6.72
2023-01-19T19:05:03.934Z,7.20
2023-01-19T19:07:20.871Z,7.53
2023-01-19T19:09:37.985Z,8.13
2023-01-19T19:11:55.251Z,8.40
2023-01-19T19:14:12.502Z,9.35
2023-01-19T19:16:31.332Z,9.52
2023-01-19T19:18:49.471Z,9.45
2023-01-19T19:21:06.503Z,10.68
2023-01-19T19:23:23.527Z,11.18
2023-01-19T19:25:40.559Z,11.40
2023-01-19T19:27:57.927Z,13.38
2023-01-19T19:30:15.382Z,11.52
2023-01-19T19:32:32.925Z,12.13
2023-01-19T19:34:50.041Z,12.40
2023-01-19T19:37:07.028Z,14.10
2023-01-19T19:39:24.072Z,13.60
2023-01-19T19:41:41.414Z,12.25
2023-01-19T19:43:58.724Z,11.48
2023-01-19T19:46:16.738Z,12.02
2023-01-19T19:48:33.847Z,11.25
2023-01-19T19:50:50.868Z,11.07
2023-01-19T19:53:08.097Z,11.15
2023-01-19T19:55:25.204Z,10.90
2023-01-19T19:57:42.475Z,12.25
2023-01-19T19:59:59.476Z,12.98
2023-01-19T20:02:16.809Z,11.98
2023-01-19T20:04:34.142Z,11.60
2023-01-19T20:06:51.196Z,11.18
2023-01-19T20:09:08.193Z,11.18
2023-01-19T20:11:25.098Z,10.82
2023-01-19T20:13:42.119Z,10.75
2023-01-19T20:15:59.217Z,10.10
2023-01-19T20:18:16.318Z,9.50
2023-01-19T20:20:33.671Z,9.27
2023-01-19T20:22:50.857Z,9.55
2023-01-19T20:25:08.072Z,10.02
2023-01-19T20:27:24.943Z,10.45
2023-01-19T20:29:41.849Z,10.57
2023-01-19T20:31:59.171Z,10.25
2023-01-19T20:34:16.123Z,9.60
2023-01-19T20:36:33.208Z,8.60
2023-01-19T20:38:50.248Z,8.70
2023-01-19T20:41:07.352Z,8.13
2023-01-19T20:43:24.461Z,7.55
2023-01-19T20:45:41.455Z,8.05
2023-01-19T20:47:58.808Z,7.22
2023-01-19T20:50:16.137Z,7.47
2023-01-19T20:52:33.091Z,7.05
2023-01-19T20:54:50.346Z,6.82
2023-01-19T20:57:07.453Z,7.30
2023-01-19T20:59:24.682Z,7.55
2023-01-19T21:01:42.385Z,7.07
2023-01-19T21:03:59.670Z,7.03
2023-01-19T21:06:18.029Z,7.25
2023-01-19T21:08:35.022Z,6.85
2023-01-19T21:10:51.928Z,7.22
2023-01-19T21:13:08.869Z,6.88
2023-01-19T21:15:28.390Z,7.13
2023-01-19T21:17:45.567Z,6.95
2023-01-19T21:20:02.627Z,6.78
2023-01-19T21:22:19.841Z,7.03
2023-01-19T21:24:36.787Z,7.25
2023-01-19T21:26:53.914Z,7.10
2023-01-19T21:29:11.002Z,7.53
2023-01-19T21:31:28.412Z,6.72
2023-01-19T21:33:45.731Z,7.72
2023-01-19T21:36:02.757Z,7.25
2023-01-19T21:38:20.085Z,7.32
2023-01-19T21:40:52.750Z,7.33
2023-01-19T21:43:10.163Z,7.15
2023-01-19T21:45:27.324Z,6.97
2023-01-19T21:47:44.684Z,6.85
2023-01-19T21:50:02.812Z,7.63
2023-01-19T21:52:20.196Z,7.10
2023-01-19T21:54:37.136Z,7.45
2023-01-19T21:56:54.134Z,6.95
2023-01-19T21:59:12.147Z,7.22
2023-01-19T22:01:29.622Z,7.35
2023-01-19T22:03:46.766Z,6.85
2023-01-19T22:06:04.019Z,6.60
2023-01-19T22:08:22.198Z,6.88
2023-01-19T22:10:39.178Z,6.25
2023-01-19T22:12:56.231Z,6.78
2023-01-19T22:15:13.634Z,6.35
2023-01-19T22:17:31.068Z,6.60
2023-01-19T22:19:48.209Z,6.88
2023-01-19T22:22:05.242Z,6.90
2023-01-19T22:24:24.984Z,7.10
2023-01-19T22:26:42.019Z,7.00
2023-01-19T22:28:59.203Z,6.28
2023-01-19T22:31:16.445Z,6.82
2023-01-19T22:33:33.976Z,6.55
2023-01-19T22:35:53.831Z,6.55
2023-01-19T22:38:10.886Z,7.25
2023-01-19T22:40:28.861Z,7.10
2023-01-19T22:42:45.753Z,8.05
2023-01-19T22:45:02.655Z,7.72
2023-01-19T22:47:19.538Z,8.07
2023-01-19T22:49:37.858Z,7.72
2023-01-19T22:51:54.752Z,8.18
2023-01-19T22:54:13.089Z,7.85
2023-01-19T22:56:30.066Z,7.63
2023-01-19T22:58:47.132Z,7.63
2023-01-19T23:01:10.161Z,7.32
2023-01-19T23:03:27.153Z,7.65
2023-01-19T23:05:44.078Z,7.53
2023-01-19T23:08:02.053Z,7.78
2023-01-19T23:10:19.352Z,9.02
2023-01-19T23:12:36.473Z,7.93
2023-01-19T23:14:54.470Z,8.43
2023-01-19T23:17:11.798Z,7.38
2023-01-19T23:19:28.790Z,7.30
2023-01-19T23:21:45.843Z,7.65
2023-01-19T23:24:02.787Z,7.22
2023-01-19T23:26:19.825Z,7.15
2023-01-19T23:28:37.884Z,6.88
2023-01-19T23:30:55.398Z,6.85
2023-01-19T23:33:12.707Z,6.88
2023-01-19T23:35:30.802Z,7.15
2023-01-19T23:37:47.873Z,6.85
2023-01-19T23:40:04.951Z,6.90
2023-01-19T23:42:23.249Z,7.38
2023-01-19T23:44:42.808Z,7.07
2023-01-19T23:47:00.351Z,6.85
2023-01-19T23:49:17.338Z,6.60
2023-01-19T23:51:34.749Z,6.97
2023-01-19T23:53:52.065Z,6.90
2023-01-19T23:56:10.037Z,7.53
2023-01-19T23:58:27.518Z,7.13
